Time;durP1;ratioP1;P1;durP2;ratioP2;P2;SDS_P1;SDS_P2;PMS_P1;PMS_P2;Temp;Humidity;BMP_temperature;BMP_pressure;BME280_temperature;BME280_humidity;BME280_pressure;Samples;Min_cycle;Max_cycle;Signal;HPM_P1;HPM_P2
2023/10/09 00:03:23;;;;;;;2.85;1.20;;;;;;;;;;4831212;29;20045;-81
2023/10/09 00:06:16;;;;;;;3.30;1.15;;;;;;;;;;4824500;29;20034;-80
2023/10/09 00:09:16;;;;;;;3.20;1.42;;;;;;;;;;4830235;29;20497;-79
2023/10/09 00:12:10;;;;;;;3.60;1.55;;;;;;;;;;4823988;29;20465;-80
2023/10/09 00:14:55;;;;;;;3.10;1.42;;;;;;;;;;4824386;29;20502;-80
2023/10/09 00:17:44;;;;;;;2.92;0.80;;;;;;;;;;4816315;29;20397;-81
2023/10/09 00:20:39;;;;;;;3.65;1.23;;;;;;;;;;4830441;29;20458;-82
2023/10/09 00:23:25;;;;;;;7.53;1.17;;;;;;;;;;4830014;29;20050;-80
2023/10/09 00:26:12;;;;;;;3.60;1.25;;;;;;;;;;4824268;29;20486;-79
2023/10/09 00:29:05;;;;;;;3.38;1.35;;;;;;;;;;4830334;29;20053;-80
2023/10/09 00:32:03;;;;;;;4.68;1.33;;;;;;;;;;4830237;29;20049;-77
2023/10/09 00:34:52;;;;;;;3.08;0.93;;;;;;;;;;4830288;29;20065;-79
2023/10/09 00:37:39;;;;;;;2.33;1.38;;;;;;;;;;4829775;29;20053;-79
2023/10/09 00:40:30;;;;;;;4.85;1.35;;;;;;;;;;4817414;29;20482;-79
2023/10/09 00:43:15;;;;;;;10.02;1.30;;;;;;;;;;4824240;29;20494;-80
2023/10/09 00:49:10;;;;;;;4.35;1.23;;;;;;;;;;4816148;29;20057;-79
2023/10/09 00:51:56;;;;;;;2.28;1.33;;;;;;;;;;4824425;29;20053;-79
2023/10/09 00:54:41;;;;;;;3.67;1.33;;;;;;;;;;4824546;29;20459;-80
2023/10/09 00:57:31;;;;;;;3.45;1.50;;;;;;;;;;4820048;29;20394;-79
2023/10/09 01:00:32;;;;;;;3.33;1.60;;;;;;;;;;4827172;29;20041;-82
2023/10/09 01:03:20;;;;;;;7.22;2.20;;;;;;;;;;4819079;29;20474;-80
2023/10/09 01:09:09;;;;;;;3.47;1.73;;;;;;;;;;4827500;29;20053;-79
2023/10/09 01:14:50;;;;;;;4.80;2.10;;;;;;;;;;4818850;29;20056;-78
2023/10/09 01:17:45;;;;;;;3.60;2.22;;;;;;;;;;4819215;29;20049;-79
2023/10/09 01:20:40;;;;;;;5.53;2.08;;;;;;;;;;4818279;29;20049;-78
2023/10/09 01:23:29;;;;;;;10.13;2.33;;;;;;;;;;4817837;29;20049;-79
2023/10/09 01:26:15;;;;;;;4.53;2.40;;;;;;;;;;4812223;29;20058;-79
2023/10/09 01:29:02;;;;;;;4.47;1.90;;;;;;;;;;4825239;29;20045;-79
2023/10/09 01:34:49;;;;;;;5.45;2.13;;;;;;;;;;4823503;29;20407;-80
2023/10/09 01:37:37;;;;;;;6.32;2.10;;;;;;;;;;4816145;29;20406;-78
2023/10/09 01:40:26;;;;;;;5.65;2.20;;;;;;;;;;4829654;29;20046;-79
2023/10/09 01:43:18;;;;;;;3.78;1.98;;;;;;;;;;4823187;29;20267;-80
2023/10/09 01:46:05;;;;;;;3.50;1.98;;;;;;;;;;4823964;29;20045;-79
2023/10/09 01:48:50;;;;;;;3.88;2.22;;;;;;;;;;4825449;29;20386;-81
2023/10/09 01:51:36;;;;;;;8.48;2.13;;;;;;;;;;4833072;29;20481;-79
2023/10/09 01:54:36;;;;;;;6.07;2.50;;;;;;;;;;4813140;29;20405;-77
2023/10/09 01:57:22;;;;;;;5.45;2.28;;;;;;;;;;4826693;29;20051;-79
2023/10/09 02:00:09;;;;;;;4.32;1.95;;;;;;;;;;4818023;29;20050;-78
2023/10/09 02:03:02;;;;;;;4.38;2.25;;;;;;;;;;4828670;29;20046;-81
2023/10/09 02:05:49;;;;;;;5.82;2.25;;;;;;;;;;4832261;29;20049;-78
2023/10/09 02:08:35;;;;;;;4.80;2.17;;;;;;;;;;4832968;29;20490;-80
2023/10/09 02:11:36;;;;;;;4.50;2.30;;;;;;;;;;4826562;29;20053;-79
2023/10/09 02:14:24;;;;;;;4.45;2.00;;;;;;;;;;4831683;29;20409;-82
2023/10/09 02:17:17;;;;;;;5.22;2.17;;;;;;;;;;4818525;29;20049;-78
2023/10/09 02:20:16;;;;;;;6.28;2.28;;;;;;;;;;4826477;29;20402;-79
2023/10/09 02:23:03;;;;;;;4.97;1.98;;;;;;;;;;4827387;29;20062;-79
2023/10/09 02:25:53;;;;;;;3.92;2.20;;;;;;;;;;4826935;29;20534;-77
2023/10/09 02:28:39;;;;;;;8.05;2.40;;;;;;;;;;4819247;29;20057;-78
2023/10/09 02:31:35;;;;;;;7.78;2.15;;;;;;;;;;4832204;29;20057;-79
2023/10/09 02:34:26;;;;;;;9.65;2.50;;;;;;;;;;4825383;29;20045;-76
2023/10/09 02:37:13;;;;;;;6.45;1.90;;;;;;;;;;4818305;29;20041;-80
2023/10/09 02:40:03;;;;;;;8.30;2.50;;;;;;;;;;4825240;29;20481;-79
2023/10/09 02:42:49;;;;;;;4.40;2.20;;;;;;;;;;4832150;29;20398;-77
2023/10/09 02:45:41;;;;;;;10.57;2.15;;;;;;;;;;4826538;29;20049;-78
2023/10/09 02:48:30;;;;;;;7.65;2.05;;;;;;;;;;4825945;29;20049;-78
2023/10/09 02:52:06;;;;;;;6.65;2.00;;;;;;;;;;4828216;29;20050;-79
2023/10/09 02:54:34;;;;;;;6.97;2.50;;;;;;;;;;4827555;29;21570;-79
2023/10/09 02:57:27;;;;;;;8.15;2.17;;;;;;;;;;4832988;29;20054;-78
2023/10/09 03:00:19;;;;;;;5.47;2.58;;;;;;;;;;4825258;29;20422;-79
2023/10/09 03:03:07;;;;;;;8.77;2.97;;;;;;;;;;4832651;29;20054;-80
2023/10/09 03:05:52;;;;;;;9.65;3.10;;;;;;;;;;4818429;29;20454;-78
2023/10/09 03:08:40;;;;;;;8.00;2.78;;;;;;;;;;4824958;29;20485;-80
2023/10/09 03:11:26;;;;;;;8.43;3.03;;;;;;;;;;4832132;29;20398;-78
2023/10/09 03:14:12;;;;;;;4.47;2.55;;;;;;;;;;4825233;29;20038;-80
2023/10/09 03:16:59;;;;;;;5.10;2.95;;;;;;;;;;4825159;29;20049;-79
2023/10/09 03:19:45;;;;;;;5.78;2.60;;;;;;;;;;4825094;29;20050;-80
2023/10/09 03:22:31;;;;;;;5.38;2.63;;;;;;;;;;4817340;29;20398;-78
2023/10/09 03:25:17;;;;;;;9.93;2.63;;;;;;;;;;4825048;29;20405;-77
2023/10/09 03:28:02;;;;;;;4.88;2.40;;;;;;;;;;4804718;29;20049;-80
2023/10/09 03:30:48;;;;;;;5.72;2.63;;;;;;;;;;4817975;29;20061;-81
2023/10/09 03:33:33;;;;;;;5.70;2.53;;;;;;;;;;4831233;29;20057;-79
2023/10/09 03:36:19;;;;;;;6.07;2.80;;;;;;;;;;4825428;29;20038;-80
2023/10/09 03:39:24;;;;;;;15.80;3.60;;;;;;;;;;4830292;29;20045;-79
2023/10/09 03:42:19;;;;;;;6.93;3.95;;;;;;;;;;4824656;29;20053;-80
2023/10/09 03:45:18;;;;;;;8.80;3.77;;;;;;;;;;4824858;29;20050;-80
2023/10/09 03:51:20;;;;;;;10.27;2.80;;;;;;;;;;4824873;29;20482;-80
2023/10/09 03:54:07;;;;;;;9.02;2.72;;;;;;;;;;4825005;29;20045;-77
2023/10/09 03:56:54;;;;;;;8.57;2.75;;;;;;;;;;4824051;29;20465;-78
2023/10/09 03:59:40;;;;;;;9.68;2.97;;;;;;;;;;4830440;29;20061;-79
2023/10/09 04:02:25;;;;;;;3.70;2.60;;;;;;;;;;4825146;29;20413;-78
2023/10/09 04:05:11;;;;;;;5.35;2.65;;;;;;;;;;4831098;29;20295;-77
2023/10/09 04:07:58;;;;;;;9.13;2.72;;;;;;;;;;4830648;29;20454;-78
2023/10/09 04:10:50;;;;;;;7.20;2.40;;;;;;;;;;4823945;29;20053;-78
2023/10/09 04:13:35;;;;;;;9.20;2.42;;;;;;;;;;4825162;29;20053;-79
2023/10/09 04:17:32;;;;;;;8.10;2.53;;;;;;;;;;4830337;29;20057;-79
2023/10/09 04:19:27;;;;;;;6.18;2.40;;;;;;;;;;4823684;29;20049;-79
2023/10/09 04:22:25;;;;;;;8.57;2.63;;;;;;;;;;4830667;29;20394;-79
2023/10/09 04:25:14;;;;;;;6.97;2.80;;;;;;;;;;4826114;29;20398;-80
2023/10/09 04:28:08;;;;;;;10.10;2.80;;;;;;;;;;4830459;29;20049;-79
2023/10/09 04:30:55;;;;;;;8.15;2.75;;;;;;;;;;4830604;29;20053;-79
2023/10/09 04:33:42;;;;;;;4.45;2.60;;;;;;;;;;4831049;29;20058;-79
2023/10/09 04:36:35;;;;;;;6.53;3.20;;;;;;;;;;4830654;29;20050;-80
2023/10/09 04:47:58;;;;;;;5.70;2.92;;;;;;;;;;4836477;29;20046;-78
2023/10/09 04:51:07;;;;;;;4.40;2.88;;;;;;;;;;4829147;29;20409;-79
2023/10/09 04:53:59;;;;;;;7.68;3.08;;;;;;;;;;4830564;29;20042;-78
2023/10/09 04:56:54;;;;;;;5.30;3.08;;;;;;;;;;4818540;29;20049;-80
2023/10/09 04:59:47;;;;;;;7.20;3.42;;;;;;;;;;4823370;29;20054;-78
2023/10/09 05:02:36;;;;;;;5.82;3.05;;;;;;;;;;4824389;29;20053;-79
2023/10/09 05:14:17;;;;;;;13.40;3.90;;;;;;;;;;4823661;29;20053;-78
2023/10/09 05:17:04;;;;;;;7.22;3.20;;;;;;;;;;4823132;29;20033;-80
2023/10/09 05:20:40;;;;;;;6.68;3.13;;;;;;;;;;4823025;29;20459;-80
2023/10/09 05:23:23;;;;;;;5.82;3.17;;;;;;;;;;4824385;29;20046;-79
2023/10/09 05:26:37;;;;;;;8.18;3.60;;;;;;;;;;4833801;29;20050;-78
2023/10/09 05:32:29;;;;;;;10.68;3.53;;;;;;;;;;4832915;29;20046;-79
2023/10/09 05:35:15;;;;;;;11.32;4.10;;;;;;;;;;4832917;29;20397;-81
2023/10/09 05:38:04;;;;;;;13.10;4.32;;;;;;;;;;4826972;29;20470;-80
2023/10/09 05:40:53;;;;;;;7.75;4.35;;;;;;;;;;4832490;29;20045;-79
2023/10/09 05:47:29;;;;;;;12.90;4.72;;;;;;;;;;4831643;29;20352;-80
2023/10/09 05:49:57;;;;;;;11.85;5.00;;;;;;;;;;4825659;29;20049;-80
2023/10/09 05:53:04;;;;;;;14.80;7.90;;;;;;;;;;4832446;29;20481;-79
2023/10/09 05:57:09;;;;;;;19.77;5.30;;;;;;;;;;4831070;29;20401;-79
2023/10/09 06:02:27;;;;;;;8.52;3.28;;;;;;;;;;4825420;29;20486;-77
2023/10/09 06:03:23;;;;;;;14.20;4.05;;;;;;;;;;4836255;29;20401;-78
2023/10/09 06:05:41;;;;;;;7.90;4.20;;;;;;;;;;4831689;29;20482;-80
2023/10/09 06:17:27;;;;;;;10.68;2.53;;;;;;;;;;4831125;29;20458;-78
2023/10/09 06:23:16;;;;;;;6.25;2.72;;;;;;;;;;4836973;29;20417;-80
2023/10/09 06:26:23;;;;;;;6.88;2.78;;;;;;;;;;4831058;29;20466;-79
2023/10/09 06:29:14;;;;;;;5.55;3.63;;;;;;;;;;4837776;29;20502;-79
2023/10/09 06:35:18;;;;;;;11.67;5.20;;;;;;;;;;4837275;29;20415;-79
2023/10/09 06:38:23;;;;;;;11.88;4.25;;;;;;;;;;4830655;29;20046;-80
2023/10/09 06:42:08;;;;;;;5.43;3.30;;;;;;;;;;4837108;29;20409;-79
2023/10/09 06:44:52;;;;;;;5.53;2.70;;;;;;;;;;4829986;29;20053;-81
2023/10/09 06:47:23;;;;;;;5.07;2.50;;;;;;;;;;4833451;29;20057;-80
2023/10/09 06:50:24;;;;;;;7.72;3.67;;;;;;;;;;4832142;29;20455;-79
2023/10/09 06:56:07;;;;;;;6.40;2.63;;;;;;;;;;4836946;29;20053;-78
2023/10/09 06:58:57;;;;;;;3.95;2.53;;;;;;;;;;4830364;29;20394;-80
2023/10/09 07:01:43;;;;;;;5.97;2.30;;;;;;;;;;4816439;29;20045;-79
2023/10/09 07:07:20;;;;;;;5.35;1.90;;;;;;;;;;4836882;29;20041;-81
2023/10/09 07:11:02;;;;;;;4.93;2.03;;;;;;;;;;4836870;29;20042;-82
2023/10/09 07:13:14;;;;;;;3.50;1.95;;;;;;;;;;4829943;29;20050;-81
2023/10/09 07:19:09;;;;;;;6.88;2.13;;;;;;;;;;4836392;29;20613;-82
2023/10/09 07:21:54;;;;;;;4.35;2.10;;;;;;;;;;4836888;29;20054;-80
2023/10/09 07:24:58;;;;;;;6.25;2.15;;;;;;;;;;4832822;29;20466;-80
2023/10/09 07:27:43;;;;;;;6.68;2.38;;;;;;;;;;4835930;29;20401;-78
2023/10/09 07:36:07;;;;;;;3.63;1.95;;;;;;;;;;4830285;29;20389;-79
2023/10/09 07:38:55;;;;;;;2.83;1.92;;;;;;;;;;4830137;29;20038;-81
2023/10/09 07:42:01;;;;;;;5.22;2.17;;;;;;;;;;4835630;29;20053;-79
2023/10/09 07:44:52;;;;;;;5.78;2.55;;;;;;;;;;4835655;29;20042;-81
2023/10/09 07:50:57;;;;;;;5.35;2.47;;;;;;;;;;4822005;29;20053;-79
2023/10/09 07:53:45;;;;;;;5.40;2.70;;;;;;;;;;4835566;29;20049;-79
2023/10/09 07:56:38;;;;;;;6.47;2.75;;;;;;;;;;4835979;29;20049;-81
2023/10/09 07:59:24;;;;;;;6.45;2.80;;;;;;;;;;4837167;29;20049;-83
2023/10/09 08:02:13;;;;;;;6.82;2.83;;;;;;;;;;4828733;29;20057;-81
2023/10/09 08:05:06;;;;;;;8.35;3.35;;;;;;;;;;4835397;29;20482;-83
2023/10/09 08:07:57;;;;;;;4.90;2.85;;;;;;;;;;4835877;29;20459;-80
2023/10/09 08:13:49;;;;;;;4.05;2.47;;;;;;;;;;4835399;29;20041;-79
2023/10/09 08:16:37;;;;;;;4.57;2.90;;;;;;;;;;4829593;29;20393;-81
2023/10/09 08:19:50;;;;;;;4.63;2.63;;;;;;;;;;4829823;29;20469;-78
2023/10/09 08:22:43;;;;;;;6.30;2.53;;;;;;;;;;4815159;29;20446;-78
2023/10/09 08:25:31;;;;;;;5.53;2.78;;;;;;;;;;4830663;29;20057;-79
2023/10/09 08:28:39;;;;;;;7.03;3.00;;;;;;;;;;4820230;29;20053;-81
2023/10/09 08:31:44;;;;;;;9.25;2.92;;;;;;;;;;4835226;29;20489;-79
2023/10/09 08:34:48;;;;;;;5.90;2.80;;;;;;;;;;4821115;29;20049;-79
2023/10/09 08:37:33;;;;;;;7.10;3.78;;;;;;;;;;4827746;29;20398;-80
2023/10/09 08:40:19;;;;;;;5.93;3.20;;;;;;;;;;4829740;29;20057;-80
2023/10/09 08:43:21;;;;;;;6.75;2.53;;;;;;;;;;4830543;29;20053;-80
2023/10/09 08:46:07;;;;;;;7.07;2.13;;;;;;;;;;4830066;29;20511;-80
2023/10/09 08:48:56;;;;;;;5.45;2.63;;;;;;;;;;4830427;29;20054;-80
2023/10/09 08:51:42;;;;;;;26.60;11.75;;;;;;;;;;4824110;29;20057;-79
2023/10/09 08:54:28;;;;;;;5.00;2.78;;;;;;;;;;4829890;29;20045;-79
2023/10/09 08:57:19;;;;;;;5.63;2.35;;;;;;;;;;4822901;29;20045;-80
2023/10/09 09:00:33;;;;;;;4.20;2.75;;;;;;;;;;4829944;29;20418;-81
2023/10/09 09:03:43;;;;;;;3.47;2.10;;;;;;;;;;4823314;29;20401;-81
2023/10/09 09:06:38;;;;;;;4.97;1.90;;;;;;;;;;4824060;29;20042;-81
2023/10/09 09:09:28;;;;;;;3.67;1.80;;;;;;;;;;4824364;29;20053;-79
2023/10/09 09:12:15;;;;;;;2.92;1.80;;;;;;;;;;4830165;29;20050;-79
2023/10/09 09:15:12;;;;;;;8.38;2.72;;;;;;;;;;4824631;29;20274;-78
2023/10/09 09:18:09;;;;;;;7.18;2.42;;;;;;;;;;4829887;29;20050;-80
2023/10/09 09:20:56;;;;;;;3.40;2.00;;;;;;;;;;4829708;29;20046;-80
2023/10/09 09:24:07;;;;;;;3.38;2.00;;;;;;;;;;4830203;29;20045;-81
2023/10/09 09:27:09;;;;;;;2.85;1.88;;;;;;;;;;4823866;29;20045;-80
2023/10/09 09:29:55;;;;;;;4.15;2.00;;;;;;;;;;4823460;29;20498;-80
2023/10/09 09:33:15;;;;;;;5.53;2.42;;;;;;;;;;4828730;29;20049;-78
2023/10/09 09:36:03;;;;;;;3.85;1.90;;;;;;;;;;4829914;29;20058;-80
2023/10/09 09:38:50;;;;;;;7.65;2.20;;;;;;;;;;4828838;29;20071;-81
2023/10/09 09:41:40;;;;;;;7.47;2.42;;;;;;;;;;4829454;29;20451;-81
2023/10/09 09:44:30;;;;;;;3.08;1.88;;;;;;;;;;4823652;29;20402;-82
2023/10/09 09:47:23;;;;;;;8.05;2.20;;;;;;;;;;4815583;29;20410;-79
2023/10/09 09:50:12;;;;;;;2.38;1.45;;;;;;;;;;4823582;29;20054;-79
2023/10/09 09:52:59;;;;;;;4.32;1.77;;;;;;;;;;4815689;29;20050;-79
2023/10/09 09:55:59;;;;;;;3.40;1.80;;;;;;;;;;4829650;29;20120;-82
2023/10/09 09:58:53;;;;;;;5.55;2.15;;;;;;;;;;4829875;29;20473;-83
2023/10/09 10:01:40;;;;;;;2.47;1.60;;;;;;;;;;4823298;29;20490;-80
2023/10/09 10:04:29;;;;;;;4.72;1.73;;;;;;;;;;4809051;29;20607;-80
2023/10/09 10:07:17;;;;;;;4.97;1.73;;;;;;;;;;4809607;29;20046;-80
2023/10/09 10:10:08;;;;;;;4.95;1.90;;;;;;;;;;4811478;29;20045;-82
2023/10/09 10:13:01;;;;;;;3.20;1.70;;;;;;;;;;4818786;29;20501;-80
2023/10/09 10:15:56;;;;;;;3.80;1.60;;;;;;;;;;4826215;29;20490;-81
2023/10/09 10:22:01;;;;;;;2.40;1.37;;;;;;;;;;4832072;29;20489;-81
2023/10/09 10:25:10;;;;;;;7.45;2.63;;;;;;;;;;4829424;29;20050;-82
2023/10/09 10:28:16;;;;;;;3.40;1.50;;;;;;;;;;4831779;29;20502;-81
2023/10/09 10:31:04;;;;;;;2.92;1.50;;;;;;;;;;4832289;29;20490;-83
2023/10/09 10:33:54;;;;;;;3.38;1.98;;;;;;;;;;4826976;29;20397;-80
2023/10/09 10:36:43;;;;;;;6.47;2.00;;;;;;;;;;4832512;29;20483;-80
2023/10/09 10:42:36;;;;;;;7.13;1.90;;;;;;;;;;4826735;29;20053;-81
2023/10/09 10:45:34;;;;;;;9.30;1.98;;;;;;;;;;4836558;29;20050;-78
2023/10/09 10:48:37;;;;;;;5.32;1.80;;;;;;;;;;4832972;29;20412;-79
2023/10/09 10:51:23;;;;;;;7.68;1.50;;;;;;;;;;4832530;29;20493;-81
2023/10/09 10:57:28;;;;;;;5.82;2.10;;;;;;;;;;4831544;29;20049;-80
2023/10/09 11:01:03;;;;;;;3.50;1.70;;;;;;;;;;4832033;29;20487;-79
2023/10/09 11:03:29;;;;;;;6.35;2.22;;;;;;;;;;4825580;29;20038;-80
2023/10/09 11:06:25;;;;;;;2.97;1.92;;;;;;;;;;4831894;29;20045;-81
2023/10/09 11:09:20;;;;;;;5.32;1.90;;;;;;;;;;4825223;29;20457;-83
2023/10/09 11:12:21;;;;;;;4.78;1.85;;;;;;;;;;4831751;29;20045;-79
2023/10/09 11:18:13;;;;;;;4.40;2.00;;;;;;;;;;4831087;29;20041;-81
2023/10/09 11:26:40;;;;;;;3.13;1.85;;;;;;;;;;4825112;29;20045;-85
2023/10/09 11:29:52;;;;;;;6.38;2.08;;;;;;;;;;4830747;29;20054;-83
2023/10/09 11:32:39;;;;;;;4.05;1.70;;;;;;;;;;4830483;29;20053;-82
2023/10/09 11:35:34;;;;;;;4.15;1.85;;;;;;;;;;4830615;29;20415;-81
2023/10/09 11:38:23;;;;;;;;;;;;;;;;;;4831360;29;20053;-84
2023/10/09 11:41:19;;;;;;;4.50;2.08;;;;;;;;;;4830924;29;19924;-81
2023/10/09 11:44:05;;;;;;;6.43;2.40;;;;;;;;;;4830683;29;20405;-82
2023/10/09 11:50:13;;;;;;;8.68;2.50;;;;;;;;;;4830382;29;20061;-80
2023/10/09 11:53:19;;;;;;;8.15;2.15;;;;;;;;;;4830848;29;20050;-81
2023/10/09 11:56:04;;;;;;;5.65;2.40;;;;;;;;;;4830115;29;20430;-81
2023/10/09 11:58:50;;;;;;;5.80;2.35;;;;;;;;;;4824160;29;20038;-83
2023/10/09 12:01:37;;;;;;;9.52;2.10;;;;;;;;;;4830223;29;20401;-79
2023/10/09 12:04:30;;;;;;;3.78;2.05;;;;;;;;;;4829606;29;20053;-79
2023/10/09 12:07:16;;;;;;;5.40;1.80;;;;;;;;;;4829457;29;20057;-80
2023/10/09 12:10:01;;;;;;;4.43;1.70;;;;;;;;;;4830197;29;20054;-81
2023/10/09 12:12:46;;;;;;;2.53;1.50;;;;;;;;;;4828750;29;20482;-81
2023/10/09 12:15:38;;;;;;;6.45;1.90;;;;;;;;;;4830161;29;20049;-79
2023/10/09 12:18:24;;;;;;;4.03;1.80;;;;;;;;;;4829381;29;20709;-81
2023/10/09 12:21:15;;;;;;;5.00;1.67;;;;;;;;;;4815379;29;20054;-80
2023/10/09 12:24:01;;;;;;;4.75;1.70;;;;;;;;;;4823321;29;20053;-82
2023/10/09 12:26:47;;;;;;;7.05;1.92;;;;;;;;;;4828982;29;20305;-82
2023/10/09 12:29:33;;;;;;;5.70;1.83;;;;;;;;;;4829282;29;20502;-84
2023/10/09 12:32:20;;;;;;;2.97;1.40;;;;;;;;;;4828344;29;20049;-87
2023/10/09 12:35:17;;;;;;;7.50;1.70;;;;;;;;;;4830018;29;20303;-83
2023/10/09 12:38:03;;;;;;;4.90;1.58;;;;;;;;;;4829811;29;20362;-82
2023/10/09 12:40:51;;;;;;;5.38;2.20;;;;;;;;;;4829644;29;20486;-81
2023/10/09 12:43:37;;;;;;;3.53;1.58;;;;;;;;;;4816119;29;20053;-79
2023/10/09 12:46:25;;;;;;;5.47;1.63;;;;;;;;;;4829421;29;20050;-79
2023/10/09 12:49:10;;;;;;;3.03;1.60;;;;;;;;;;4828341;29;20054;-79
2023/10/09 12:51:58;;;;;;;5.78;1.60;;;;;;;;;;4828983;29;20057;-79
2023/10/09 12:54:47;;;;;;;6.10;1.67;;;;;;;;;;4823051;29;20049;-82
2023/10/09 12:57:36;;;;;;;2.75;1.63;;;;;;;;;;4823437;29;20394;-82
2023/10/09 13:00:25;;;;;;;3.35;1.80;;;;;;;;;;4829252;29;20045;-79
2023/10/09 13:03:17;;;;;;;4.88;2.05;;;;;;;;;;4828997;29;20050;-81
2023/10/09 13:06:07;;;;;;;2.95;1.70;;;;;;;;;;4828792;29;20053;-81
2023/10/09 13:08:52;;;;;;;3.22;1.40;;;;;;;;;;4814740;29;20045;-79
2023/10/09 13:11:40;;;;;;;3.90;1.85;;;;;;;;;;4828755;29;20053;-82
2023/10/09 13:14:25;;;;;;;3.50;1.98;;;;;;;;;;4828571;29;20045;-80
2023/10/09 13:17:11;;;;;;;4.13;1.60;;;;;;;;;;4822071;29;20478;-81
2023/10/09 13:19:56;;;;;;;6.28;1.67;;;;;;;;;;4828511;29;20250;-83
2023/10/09 13:22:42;;;;;;;7.55;1.73;;;;;;;;;;4828226;29;20474;-83
2023/10/09 13:25:39;;;;;;;4.60;1.73;;;;;;;;;;4824053;29;20429;-82
2023/10/09 13:28:24;;;;;;;4.88;1.70;;;;;;;;;;4821975;29;20054;-80
2023/10/09 13:31:11;;;;;;;3.47;1.90;;;;;;;;;;4822159;29;20429;-81
2023/10/09 13:33:58;;;;;;;4.65;1.95;;;;;;;;;;4828064;29;20054;-81
2023/10/09 13:36:53;;;;;;;5.93;2.20;;;;;;;;;;4814949;29;20686;-80
2023/10/09 13:39:39;;;;;;;3.10;1.90;;;;;;;;;;4828285;29;20057;-81
2023/10/09 13:42:25;;;;;;;3.75;1.70;;;;;;;;;;4828321;29;20046;-80
2023/10/09 13:45:15;;;;;;;5.25;2.08;;;;;;;;;;4831699;29;20053;-82
2023/10/09 13:48:03;;;;;;;4.93;2.40;;;;;;;;;;4832075;29;20468;-82
2023/10/09 13:50:48;;;;;;;5.13;2.40;;;;;;;;;;4825990;29;20417;-80
2023/10/09 13:53:44;;;;;;;4.53;2.08;;;;;;;;;;4831180;29;20417;-79
2023/10/09 13:56:30;;;;;;;8.43;2.00;;;;;;;;;;4831583;29;21488;-80
2023/10/09 13:59:17;;;;;;;6.57;2.15;;;;;;;;;;4832141;29;20470;-79
2023/10/09 14:02:16;;;;;;;4.53;2.30;;;;;;;;;;4827774;29;20053;-80
2023/10/09 14:05:03;;;;;;;6.57;2.08;;;;;;;;;;4830705;29;20491;-80
2023/10/09 14:07:49;;;;;;;4.70;2.05;;;;;;;;;;4830285;29;20053;-79
2023/10/09 14:10:38;;;;;;;5.25;2.10;;;;;;;;;;4831557;29;20072;-77
2023/10/09 14:13:28;;;;;;;7.10;1.83;;;;;;;;;;4826126;29;20053;-79
2023/10/09 14:16:23;;;;;;;2.45;1.80;;;;;;;;;;4831589;29;20472;-78
2023/10/09 14:19:13;;;;;;;5.15;2.67;;;;;;;;;;4831362;29;20406;-78
2023/10/09 14:21:58;;;;;;;4.53;1.90;;;;;;;;;;4825482;29;20046;-78
2023/10/09 14:24:45;;;;;;;4.53;2.35;;;;;;;;;;4825324;29;20486;-82
2023/10/09 14:27:30;;;;;;;3.45;2.10;;;;;;;;;;4831581;29;20050;-79
2023/10/09 14:30:22;;;;;;;4.82;2.40;;;;;;;;;;4824438;29;20046;-78
2023/10/09 14:33:12;;;;;;;4.50;1.98;;;;;;;;;;4825820;29;20053;-78
2023/10/09 14:35:58;;;;;;;5.43;2.08;;;;;;;;;;4831763;29;20057;-78
2023/10/09 14:38:46;;;;;;;6.30;2.20;;;;;;;;;;4831824;29;20394;-80
2023/10/09 14:41:33;;;;;;;5.90;1.77;;;;;;;;;;4832223;29;20486;-81
2023/10/09 14:44:18;;;;;;;4.78;1.70;;;;;;;;;;4824993;29;20046;-80
2023/10/09 14:47:07;;;;;;;7.55;2.70;;;;;;;;;;4830728;29;20075;-80
2023/10/09 14:49:56;;;;;;;7.45;2.70;;;;;;;;;;4835288;29;20049;-81
2023/10/09 14:52:41;;;;;;;5.75;2.58;;;;;;;;;;4837235;29;20045;-80
2023/10/09 14:55:31;;;;;;;4.97;2.13;;;;;;;;;;4835283;29;20058;-80
2023/10/09 14:58:17;;;;;;;5.75;2.60;;;;;;;;;;4830123;29;20462;-79
2023/10/09 15:01:09;;;;;;;7.72;2.25;;;;;;;;;;4830444;29;20486;-81
2023/10/09 15:03:57;;;;;;;4.60;2.47;;;;;;;;;;4836854;29;20064;-80
2023/10/09 15:06:42;;;;;;;8.45;3.15;;;;;;;;;;4837090;29;20045;-82
2023/10/09 15:09:31;;;;;;;13.55;3.78;;;;;;;;;;4828941;29;20054;-79
2023/10/09 15:12:17;;;;;;;13.73;3.55;;;;;;;;;;4830982;29;20057;-80
2023/10/09 15:15:04;;;;;;;4.85;2.95;;;;;;;;;;4830797;29;20458;-79
2023/10/09 15:17:49;;;;;;;11.57;3.78;;;;;;;;;;4830410;29;20053;-81
2023/10/09 15:20:35;;;;;;;8.68;3.05;;;;;;;;;;4815969;29;20062;-81
2023/10/09 15:23:20;;;;;;;10.80;4.80;;;;;;;;;;4831200;29;21175;-81
2023/10/09 15:26:06;;;;;;;15.05;5.82;;;;;;;;;;4830589;29;20474;-83
2023/10/09 15:28:52;;;;;;;16.05;6.57;;;;;;;;;;4831200;29;20699;-83
2023/10/09 15:31:40;;;;;;;13.10;4.93;;;;;;;;;;4824336;29;20057;-80
2023/10/09 15:34:27;;;;;;;12.95;3.42;;;;;;;;;;4831096;29;20042;-80
2023/10/09 15:37:13;;;;;;;7.78;3.40;;;;;;;;;;4825428;29;20398;-80
2023/10/09 15:40:13;;;;;;;8.10;3.55;;;;;;;;;;4830491;29;20061;-80
2023/10/09 15:42:59;;;;;;;6.10;3.15;;;;;;;;;;4833363;29;20041;-81
2023/10/09 15:45:47;;;;;;;9.82;3.05;;;;;;;;;;4831703;29;20049;-79
2023/10/09 15:48:36;;;;;;;7.38;2.70;;;;;;;;;;4830213;29;20479;-81
2023/10/09 15:51:22;;;;;;;6.70;2.40;;;;;;;;;;4831279;29;20049;-80
2023/10/09 15:54:11;;;;;;;9.55;3.30;;;;;;;;;;4825227;29;20482;-81
2023/10/09 15:56:56;;;;;;;6.43;2.80;;;;;;;;;;4832000;29;20041;-81
2023/10/09 15:59:42;;;;;;;10.45;3.10;;;;;;;;;;4830738;29;20061;-82
2023/10/09 16:02:27;;;;;;;12.55;3.47;;;;;;;;;;4829900;29;20050;-79
2023/10/09 16:05:13;;;;;;;11.57;4.15;;;;;;;;;;4831748;29;20045;-80
2023/10/09 16:08:00;;;;;;;15.80;6.97;;;;;;;;;;4831242;29;20046;-79
2023/10/09 16:10:48;;;;;;;96.60;44.83;;;;;;;;;;4828135;29;20034;-79
2023/10/09 16:13:34;;;;;;;44.95;21.42;;;;;;;;;;4833774;29;20475;-81
2023/10/09 16:16:27;;;;;;;26.42;10.98;;;;;;;;;;4833614;29;20053;-79
2023/10/09 16:19:12;;;;;;;22.38;9.00;;;;;;;;;;4835236;29;21486;-83
2023/10/09 16:22:03;;;;;;;20.85;7.30;;;;;;;;;;4829205;29;20498;-79
2023/10/09 16:24:50;;;;;;;24.40;11.10;;;;;;;;;;4828756;29;20053;-80
2023/10/09 16:27:36;;;;;;;40.95;22.48;;;;;;;;;;4831650;29;20049;-80
2023/10/09 16:30:21;;;;;;;39.50;24.15;;;;;;;;;;4830873;29;20034;-79
2023/10/09 16:33:06;;;;;;;41.10;24.13;;;;;;;;;;4821518;29;20046;-81
2023/10/09 16:35:54;;;;;;;34.78;20.55;;;;;;;;;;4815938;29;20049;-81
2023/10/09 16:38:40;;;;;;;34.00;18.48;;;;;;;;;;4829515;29;20461;-79
2023/10/09 16:41:26;;;;;;;38.88;19.88;;;;;;;;;;4828883;29;20046;-78
2023/10/09 16:44:16;;;;;;;42.53;23.45;;;;;;;;;;4834623;29;20049;-81
2023/10/09 16:47:02;;;;;;;52.30;26.33;;;;;;;;;;4834975;29;20038;-78
2023/10/09 16:49:51;;;;;;;57.70;27.65;;;;;;;;;;4834605;29;20060;-80
2023/10/09 16:52:38;;;;;;;48.22;22.48;;;;;;;;;;4829029;29;20057;-82
2023/10/09 16:55:27;;;;;;;33.28;18.90;;;;;;;;;;4829575;29;20034;-79
2023/10/09 16:58:12;;;;;;;40.33;18.90;;;;;;;;;;4821529;29;20482;-79
2023/10/09 17:00:58;;;;;;;29.08;14.90;;;;;;;;;;4829532;29;20397;-80
2023/10/09 17:03:43;;;;;;;30.38;15.30;;;;;;;;;;4821628;29;20049;-80
2023/10/09 17:06:31;;;;;;;29.05;12.85;;;;;;;;;;4835442;29;20454;-79
2023/10/09 17:09:19;;;;;;;23.38;12.13;;;;;;;;;;4823995;29;20443;-79
2023/10/09 17:12:07;;;;;;;21.25;9.45;;;;;;;;;;4828662;29;20053;-80
2023/10/09 17:14:52;;;;;;;16.75;8.52;;;;;;;;;;4829308;29;20498;-86
2023/10/09 17:17:38;;;;;;;15.20;9.10;;;;;;;;;;4828588;29;20475;-81
2023/10/09 17:20:27;;;;;;;29.35;10.38;;;;;;;;;;4831603;29;20038;-80
2023/10/09 17:23:12;;;;;;;19.60;11.35;;;;;;;;;;4832815;29;20038;-81
2023/10/09 17:26:02;;;;;;;17.63;10.70;;;;;;;;;;4826199;29;20061;-82
2023/10/09 17:28:48;;;;;;;27.42;11.45;;;;;;;;;;4832775;29;20049;-81
2023/10/09 17:31:35;;;;;;;27.67;12.88;;;;;;;;;;4834328;29;20454;-83
2023/10/09 17:34:22;;;;;;;23.73;12.60;;;;;;;;;;4834799;29;20417;-84
2023/10/09 17:37:08;;;;;;;23.40;12.55;;;;;;;;;;4834348;29;20054;-83
2023/10/09 17:39:53;;;;;;;26.23;15.73;;;;;;;;;;4832600;29;20045;-83
2023/10/09 17:42:41;;;;;;;28.85;13.52;;;;;;;;;;4806780;29;20054;-84
2023/10/09 17:45:29;;;;;;;24.08;14.15;;;;;;;;;;4833715;29;20045;-81
2023/10/09 17:48:25;;;;;;;24.70;12.23;;;;;;;;;;4821445;29;20053;-81
2023/10/09 17:51:12;;;;;;;26.92;15.20;;;;;;;;;;4819423;29;20061;-82
2023/10/09 17:53:59;;;;;;;30.00;17.60;;;;;;;;;;4832095;29;20054;-81
2023/10/09 17:56:44;;;;;;;32.72;15.32;;;;;;;;;;4824817;29;20425;-82
2023/10/09 17:59:33;;;;;;;36.33;17.42;;;;;;;;;;4831465;29;20636;-81
2023/10/09 18:02:23;;;;;;;36.88;18.80;;;;;;;;;;4830034;29;20471;-79
2023/10/09 18:05:10;;;;;;;48.75;18.67;;;;;;;;;;4800164;29;20398;-80
2023/10/09 18:08:01;;;;;;;41.83;18.38;;;;;;;;;;4831899;29;20045;-82
2023/10/09 18:10:50;;;;;;;35.55;17.92;;;;;;;;;;4826808;29;20471;-81
2023/10/09 18:13:37;;;;;;;30.60;16.65;;;;;;;;;;4818441;29;20046;-81
2023/10/09 18:16:23;;;;;;;38.00;17.10;;;;;;;;;;4832775;29;20049;-82
2023/10/09 18:19:14;;;;;;;34.15;16.75;;;;;;;;;;4832865;29;20471;-80
2023/10/09 18:22:00;;;;;;;33.55;17.40;;;;;;;;;;4834341;29;20375;-80
2023/10/09 18:24:45;;;;;;;28.67;16.20;;;;;;;;;;4817512;29;20467;-79
2023/10/09 18:27:31;;;;;;;34.15;17.83;;;;;;;;;;4819616;29;20061;-79
2023/10/09 18:30:18;;;;;;;35.60;17.23;;;;;;;;;;4819719;29;20085;-80
2023/10/09 18:33:03;;;;;;;39.20;18.35;;;;;;;;;;4833836;29;20045;-80
2023/10/09 18:35:49;;;;;;;31.58;16.55;;;;;;;;;;4828595;29;20096;-82